sensor_id;sensor_type;location;lat;lon;timestamp;pressure;altitude;pressure_sealevel;temperature
41940;BMP180;23057;48.554;14.454;2023-04-30T00:02:11;93872.00;;;16.00
41940;BMP180;23057;48.554;14.454;2023-04-30T00:04:42;93881.00;;;16.00
41940;BMP180;23057;48.554;14.454;2023-04-30T00:07:13;93886.00;;;16.00
41940;BMP180;23057;48.554;14.454;2023-04-30T00:09:43;93886.00;;;16.00
41940;BMP180;23057;48.554;14.454;2023-04-30T00:12:14;93883.00;;;16.00
41940;BMP180;23057;48.554;14.454;2023-04-30T00:14:45;93872.00;;;15.90
41940;BMP180;23057;48.554;14.454;2023-04-30T00:17:16;93881.00;;;15.90
41940;BMP180;23057;48.554;14.454;2023-04-30T00:19:46;93884.00;;;15.90
41940;BMP180;23057;48.554;14.454;2023-04-30T00:22:17;93893.00;;;15.90
41940;BMP180;23057;48.554;14.454;2023-04-30T00:24:48;93886.00;;;15.80
41940;BMP180;23057;48.554;14.454;2023-04-30T00:27:19;93891.00;;;15.90
41940;BMP180;23057;48.554;14.454;2023-04-30T00:29:49;93891.00;;;15.80
41940;BMP180;23057;48.554;14.454;2023-04-30T00:32:20;93893.00;;;15.80
41940;BMP180;23057;48.554;14.454;2023-04-30T00:34:51;93898.00;;;15.80
41940;BMP180;23057;48.554;14.454;2023-04-30T00:37:22;93893.00;;;15.80
41940;BMP180;23057;48.554;14.454;2023-04-30T00:39:52;93901.00;;;15.80
41940;BMP180;23057;48.554;14.454;2023-04-30T00:42:23;93899.00;;;15.80
41940;BMP180;23057;48.554;14.454;2023-04-30T00:44:54;93894.00;;;15.80
41940;BMP180;23057;48.554;14.454;2023-04-30T00:47:24;93891.00;;;15.70
41940;BMP180;23057;48.554;14.454;2023-04-30T00:49:55;93890.00;;;15.70
41940;BMP180;23057;48.554;14.454;2023-04-30T00:52:26;93889.00;;;15.70
41940;BMP180;23057;48.554;14.454;2023-04-30T00:54:57;93885.00;;;15.70
41940;BMP180;23057;48.554;14.454;2023-04-30T00:57:28;93888.00;;;15.60
41940;BMP180;23057;48.554;14.454;2023-04-30T00:59:59;93891.00;;;15.60
41940;BMP180;23057;48.554;14.454;2023-04-30T01:02:30;93891.00;;;15.60
41940;BMP180;23057;48.554;14.454;2023-04-30T01:05:02;93889.00;;;15.60
41940;BMP180;23057;48.554;14.454;2023-04-30T01:07:35;93883.00;;;15.50
41940;BMP180;23057;48.554;14.454;2023-04-30T01:10:15;93888.00;;;15.50
41940;BMP180;23057;48.554;14.454;2023-04-30T01:13:05;93889.00;;;15.40
41940;BMP180;23057;48.554;14.454;2023-04-30T01:15:46;93885.00;;;15.40
41940;BMP180;23057;48.554;14.454;2023-04-30T01:18:38;93891.00;;;15.40
41940;BMP180;23057;48.554;14.454;2023-04-30T01:21:14;93897.00;;;15.40
41940;BMP180;23057;48.554;14.454;2023-04-30T01:29:10;93903.00;;;15.40
41940;BMP180;23057;48.554;14.454;2023-04-30T01:31:43;93913.00;;;15.40
41940;BMP180;23057;48.554;14.454;2023-04-30T01:34:14;93910.00;;;15.40
41940;BMP180;23057;48.554;14.454;2023-04-30T01:36:55;93912.00;;;15.40
41940;BMP180;23057;48.554;14.454;2023-04-30T01:46:07;93914.00;;;15.30
41940;BMP180;23057;48.554;14.454;2023-04-30T01:48:58;93919.00;;;15.30
41940;BMP180;23057;48.554;14.454;2023-04-30T01:51:59;93927.00;;;15.20
41940;BMP180;23057;48.554;14.454;2023-04-30T01:55:10;93921.00;;;15.30
41940;BMP180;23057;48.554;14.454;2023-04-30T01:58:15;93923.00;;;15.20
41940;BMP180;23057;48.554;14.454;2023-04-30T02:00:47;93924.00;;;15.20
41940;BMP180;23057;48.554;14.454;2023-04-30T02:03:21;93925.00;;;15.20
41940;BMP180;23057;48.554;14.454;2023-04-30T02:05:52;93930.00;;;15.20
41940;BMP180;23057;48.554;14.454;2023-04-30T02:08:22;93928.00;;;15.10
41940;BMP180;23057;48.554;14.454;2023-04-30T02:10:53;93928.00;;;15.10
41940;BMP180;23057;48.554;14.454;2023-04-30T02:13:24;93930.00;;;15.10
41940;BMP180;23057;48.554;14.454;2023-04-30T02:15:54;93937.00;;;15.10
41940;BMP180;23057;48.554;14.454;2023-04-30T02:18:25;93934.00;;;15.10
41940;BMP180;23057;48.554;14.454;2023-04-30T02:20:56;93925.00;;;15.10
41940;BMP180;23057;48.554;14.454;2023-04-30T02:23:27;93932.00;;;15.10
41940;BMP180;23057;48.554;14.454;2023-04-30T02:25:57;93935.00;;;15.10
41940;BMP180;23057;48.554;14.454;2023-04-30T02:28:28;93940.00;;;15.10
41940;BMP180;23057;48.554;14.454;2023-04-30T02:30:59;93940.00;;;15.10
41940;BMP180;23057;48.554;14.454;2023-04-30T02:33:30;93941.00;;;15.10
41940;BMP180;23057;48.554;14.454;2023-04-30T02:36:01;93939.00;;;15.10
41940;BMP180;23057;48.554;14.454;2023-04-30T02:38:32;93953.00;;;15.10
41940;BMP180;23057;48.554;14.454;2023-04-30T02:41:02;93951.00;;;15.10
41940;BMP180;23057;48.554;14.454;2023-04-30T02:43:33;93955.00;;;15.10
41940;BMP180;23057;48.554;14.454;2023-04-30T02:46:04;93958.00;;;15.10
41940;BMP180;23057;48.554;14.454;2023-04-30T02:48:35;93954.00;;;15.10
41940;BMP180;23057;48.554;14.454;2023-04-30T02:51:06;93956.00;;;15.10
41940;BMP180;23057;48.554;14.454;2023-04-30T02:53:37;93961.00;;;15.10
41940;BMP180;23057;48.554;14.454;2023-04-30T02:56:07;93965.00;;;15.10
41940;BMP180;23057;48.554;14.454;2023-04-30T02:58:38;93963.00;;;15.10
41940;BMP180;23057;48.554;14.454;2023-04-30T03:01:09;93964.00;;;15.10
41940;BMP180;23057;48.554;14.454;2023-04-30T03:03:40;93970.00;;;15.20
41940;BMP180;23057;48.554;14.454;2023-04-30T03:06:10;93973.00;;;15.20
41940;BMP180;23057;48.554;14.454;2023-04-30T03:08:41;93973.00;;;15.20
41940;BMP180;23057;48.554;14.454;2023-04-30T03:11:12;93971.00;;;15.20
41940;BMP180;23057;48.554;14.454;2023-04-30T03:13:43;93973.00;;;15.30
41940;BMP180;23057;48.554;14.454;2023-04-30T03:16:13;93972.00;;;15.30
41940;BMP180;23057;48.554;14.454;2023-04-30T03:18:45;93962.00;;;15.20
41940;BMP180;23057;48.554;14.454;2023-04-30T03:21:16;93968.00;;;15.20
41940;BMP180;23057;48.554;14.454;2023-04-30T03:23:47;93971.00;;;15.20
41940;BMP180;23057;48.554;14.454;2023-04-30T03:26:19;93974.00;;;15.20
41940;BMP180;23057;48.554;14.454;2023-04-30T03:28:50;93980.00;;;15.20
41940;BMP180;23057;48.554;14.454;2023-04-30T03:31:21;93976.00;;;15.20
41940;BMP180;23057;48.554;14.454;2023-04-30T03:33:51;93969.00;;;15.20
41940;BMP180;23057;48.554;14.454;2023-04-30T03:36:22;93968.00;;;15.20
41940;BMP180;23057;48.554;14.454;2023-04-30T03:38:53;93981.00;;;15.20
41940;BMP180;23057;48.554;14.454;2023-04-30T03:41:24;93970.00;;;15.20
41940;BMP180;23057;48.554;14.454;2023-04-30T03:43:54;93974.00;;;15.20
41940;BMP180;23057;48.554;14.454;2023-04-30T03:46:25;93980.00;;;15.20
41940;BMP180;23057;48.554;14.454;2023-04-30T03:48:56;93984.00;;;15.30
41940;BMP180;23057;48.554;14.454;2023-04-30T03:51:27;93979.00;;;15.30
41940;BMP180;23057;48.554;14.454;2023-04-30T03:53:57;93989.00;;;15.30
41940;BMP180;23057;48.554;14.454;2023-04-30T03:56:28;93987.00;;;15.30
41940;BMP180;23057;48.554;14.454;2023-04-30T03:58:59;93989.00;;;15.30
41940;BMP180;23057;48.554;14.454;2023-04-30T04:01:30;93983.00;;;15.30
41940;BMP180;23057;48.554;14.454;2023-04-30T04:04:01;93977.00;;;15.30
41940;BMP180;23057;48.554;14.454;2023-04-30T04:06:32;93980.00;;;15.30
41940;BMP180;23057;48.554;14.454;2023-04-30T04:09:03;93985.00;;;15.30
41940;BMP180;23057;48.554;14.454;2023-04-30T04:11:34;93980.00;;;15.30
41940;BMP180;23057;48.554;14.454;2023-04-30T04:14:05;93981.00;;;15.30
41940;BMP180;23057;48.554;14.454;2023-04-30T04:16:35;93990.00;;;15.20
41940;BMP180;23057;48.554;14.454;2023-04-30T04:19:07;93991.00;;;15.20
41940;BMP180;23057;48.554;14.454;2023-04-30T04:21:38;93993.00;;;15.20
41940;BMP180;23057;48.554;14.454;2023-04-30T04:24:09;93991.00;;;15.20
41940;BMP180;23057;48.554;14.454;2023-04-30T04:26:39;93992.00;;;15.20
41940;BMP180;23057;48.554;14.454;2023-04-30T04:29:10;93993.00;;;15.30
41940;BMP180;23057;48.554;14.454;2023-04-30T04:31:41;94003.00;;;15.30
41940;BMP180;23057;48.554;14.454;2023-04-30T04:34:12;94001.00;;;15.30
41940;BMP180;23057;48.554;14.454;2023-04-30T04:36:43;94008.00;;;15.40
41940;BMP180;23057;48.554;14.454;2023-04-30T04:39:13;94008.00;;;15.50
41940;BMP180;23057;48.554;14.454;2023-04-30T04:41:44;94009.00;;;15.60
41940;BMP180;23057;48.554;14.454;2023-04-30T04:44:15;94008.00;;;15.60
41940;BMP180;23057;48.554;14.454;2023-04-30T04:46:46;93996.00;;;15.70
41940;BMP180;23057;48.554;14.454;2023-04-30T04:49:16;94005.00;;;15.80
41940;BMP180;23057;48.554;14.454;2023-04-30T04:51:47;94004.00;;;15.80
41940;BMP180;23057;48.554;14.454;2023-04-30T04:54:18;94005.00;;;16.00
41940;BMP180;23057;48.554;14.454;2023-04-30T04:56:48;94009.00;;;16.30
41940;BMP180;23057;48.554;14.454;2023-04-30T04:59:20;94011.00;;;16.50
41940;BMP180;23057;48.554;14.454;2023-04-30T05:01:51;94012.00;;;16.60
41940;BMP180;23057;48.554;14.454;2023-04-30T05:04:22;94017.00;;;16.80
41940;BMP180;23057;48.554;14.454;2023-04-30T05:06:53;94013.00;;;17.00
41940;BMP180;23057;48.554;14.454;2023-04-30T05:09:24;94014.00;;;17.30
41940;BMP180;23057;48.554;14.454;2023-04-30T05:11:54;94022.00;;;17.60
41940;BMP180;23057;48.554;14.454;2023-04-30T05:14:25;94024.00;;;17.80
41940;BMP180;23057;48.554;14.454;2023-04-30T05:16:56;94022.00;;;17.90
41940;BMP180;23057;48.554;14.454;2023-04-30T05:19:26;94029.00;;;17.90
41940;BMP180;23057;48.554;14.454;2023-04-30T05:21:57;94030.00;;;17.80
41940;BMP180;23057;48.554;14.454;2023-04-30T05:24:30;94029.00;;;17.70
41940;BMP180;23057;48.554;14.454;2023-04-30T05:27:01;94029.00;;;17.60
41940;BMP180;23057;48.554;14.454;2023-04-30T05:29:34;94032.00;;;17.70
41940;BMP180;23057;48.554;14.454;2023-04-30T05:32:05;94039.00;;;17.80
41940;BMP180;23057;48.554;14.454;2023-04-30T05:34:37;94034.00;;;17.90
41940;BMP180;23057;48.554;14.454;2023-04-30T05:37:08;94033.00;;;18.00
41940;BMP180;23057;48.554;14.454;2023-04-30T05:39:38;94040.00;;;18.10
41940;BMP180;23057;48.554;14.454;2023-04-30T05:42:09;94038.00;;;18.10
41940;BMP180;23057;48.554;14.454;2023-04-30T05:44:40;94042.00;;;18.20
41940;BMP180;23057;48.554;14.454;2023-04-30T05:47:11;94042.00;;;18.10
41940;BMP180;23057;48.554;14.454;2023-04-30T05:49:41;94038.00;;;17.90
41940;BMP180;23057;48.554;14.454;2023-04-30T05:52:12;94035.00;;;17.70
41940;BMP180;23057;48.554;14.454;2023-04-30T05:54:44;94040.00;;;17.60
41940;BMP180;23057;48.554;14.454;2023-04-30T05:57:17;94045.00;;;17.40
41940;BMP180;23057;48.554;14.454;2023-04-30T05:59:48;94037.00;;;17.40
41940;BMP180;23057;48.554;14.454;2023-04-30T06:02:19;94044.00;;;17.30
41940;BMP180;23057;48.554;14.454;2023-04-30T06:04:50;94041.00;;;17.30
41940;BMP180;23057;48.554;14.454;2023-04-30T06:07:20;94043.00;;;17.30
41940;BMP180;23057;48.554;14.454;2023-04-30T06:09:51;94044.00;;;17.20
41940;BMP180;23057;48.554;14.454;2023-04-30T06:12:22;94041.00;;;17.30
41940;BMP180;23057;48.554;14.454;2023-04-30T06:14:53;94045.00;;;17.20
41940;BMP180;23057;48.554;14.454;2023-04-30T06:17:24;94049.00;;;17.20
41940;BMP180;23057;48.554;14.454;2023-04-30T06:19:54;94042.00;;;17.20
41940;BMP180;23057;48.554;14.454;2023-04-30T06:22:29;94053.00;;;17.10
41940;BMP180;23057;48.554;14.454;2023-04-30T06:25:00;94044.00;;;17.00
41940;BMP180;23057;48.554;14.454;2023-04-30T06:27:31;94043.00;;;16.90
41940;BMP180;23057;48.554;14.454;2023-04-30T06:30:02;94047.00;;;16.90
41940;BMP180;23057;48.554;14.454;2023-04-30T06:32:33;94057.00;;;16.80
41940;BMP180;23057;48.554;14.454;2023-04-30T06:35:04;94057.00;;;16.80
41940;BMP180;23057;48.554;14.454;2023-04-30T06:37:35;94047.00;;;16.80
41940;BMP180;23057;48.554;14.454;2023-04-30T06:40:07;94067.00;;;16.70
41940;BMP180;23057;48.554;14.454;2023-04-30T06:42:38;94058.00;;;16.70
41940;BMP180;23057;48.554;14.454;2023-04-30T06:45:09;94058.00;;;16.70
41940;BMP180;23057;48.554;14.454;2023-04-30T06:47:40;94060.00;;;16.80
41940;BMP180;23057;48.554;14.454;2023-04-30T06:50:12;94074.00;;;16.70
41940;BMP180;23057;48.554;14.454;2023-04-30T06:52:44;94076.00;;;16.70
41940;BMP180;23057;48.554;14.454;2023-04-30T06:55:15;94074.00;;;16.70
41940;BMP180;23057;48.554;14.454;2023-04-30T06:57:46;94072.00;;;16.70
41940;BMP180;23057;48.554;14.454;2023-04-30T07:00:17;94074.00;;;16.60
41940;BMP180;23057;48.554;14.454;2023-04-30T07:02:47;94075.00;;;16.60
41940;BMP180;23057;48.554;14.454;2023-04-30T07:05:21;94074.00;;;16.60
41940;BMP180;23057;48.554;14.454;2023-04-30T07:07:52;94075.00;;;16.60
41940;BMP180;23057;48.554;14.454;2023-04-30T07:10:22;94070.00;;;16.70
41940;BMP180;23057;48.554;14.454;2023-04-30T07:12:53;94077.00;;;16.70
41940;BMP180;23057;48.554;14.454;2023-04-30T07:15:24;94073.00;;;16.70
41940;BMP180;23057;48.554;14.454;2023-04-30T07:17:55;94068.00;;;16.80
41940;BMP180;23057;48.554;14.454;2023-04-30T07:20:26;94074.00;;;16.80
41940;BMP180;23057;48.554;14.454;2023-04-30T07:22:57;94079.00;;;16.80
41940;BMP180;23057;48.554;14.454;2023-04-30T07:25:28;94078.00;;;16.90
41940;BMP180;23057;48.554;14.454;2023-04-30T07:27:58;94081.00;;;16.90
41940;BMP180;23057;48.554;14.454;2023-04-30T07:30:29;94078.00;;;16.90
41940;BMP180;23057;48.554;14.454;2023-04-30T07:33:00;94088.00;;;16.90
41940;BMP180;23057;48.554;14.454;2023-04-30T07:35:31;94080.00;;;17.00
41940;BMP180;23057;48.554;14.454;2023-04-30T07:38:02;94075.00;;;17.20
41940;BMP180;23057;48.554;14.454;2023-04-30T07:40:34;94082.00;;;17.40
41940;BMP180;23057;48.554;14.454;2023-04-30T07:43:05;94074.00;;;17.50
41940;BMP180;23057;48.554;14.454;2023-04-30T07:45:36;94084.00;;;17.60
41940;BMP180;23057;48.554;14.454;2023-04-30T07:48:07;94078.00;;;17.60
41940;BMP180;23057;48.554;14.454;2023-04-30T07:50:37;94076.00;;;17.70
41940;BMP180;23057;48.554;14.454;2023-04-30T07:53:08;94074.00;;;17.60
41940;BMP180;23057;48.554;14.454;2023-04-30T07:55:39;94077.00;;;17.60
41940;BMP180;23057;48.554;14.454;2023-04-30T07:58:10;94074.00;;;17.70
41940;BMP180;23057;48.554;14.454;2023-04-30T08:00:41;94086.00;;;17.90
41940;BMP180;23057;48.554;14.454;2023-04-30T08:03:12;94073.00;;;18.20
41940;BMP180;23057;48.554;14.454;2023-04-30T08:05:42;94085.00;;;18.20
41940;BMP180;23057;48.554;14.454;2023-04-30T08:08:13;94086.00;;;18.20
41940;BMP180;23057;48.554;14.454;2023-04-30T08:10:44;94090.00;;;18.20
41940;BMP180;23057;48.554;14.454;2023-04-30T08:13:15;94090.00;;;18.20
41940;BMP180;23057;48.554;14.454;2023-04-30T08:15:46;94081.00;;;18.30
41940;BMP180;23057;48.554;14.454;2023-04-30T08:18:16;94084.00;;;18.50
41940;BMP180;23057;48.554;14.454;2023-04-30T08:20:47;94083.00;;;18.70
41940;BMP180;23057;48.554;14.454;2023-04-30T08:23:18;94089.00;;;18.70
41940;BMP180;23057;48.554;14.454;2023-04-30T08:25:48;94082.00;;;18.80
41940;BMP180;23057;48.554;14.454;2023-04-30T08:28:19;94086.00;;;18.90
41940;BMP180;23057;48.554;14.454;2023-04-30T08:30:50;94087.00;;;18.90
41940;BMP180;23057;48.554;14.454;2023-04-30T08:33:21;94085.00;;;19.10
41940;BMP180;23057;48.554;14.454;2023-04-30T08:35:52;94090.00;;;19.20
41940;BMP180;23057;48.554;14.454;2023-04-30T08:38:23;94084.00;;;19.20
41940;BMP180;23057;48.554;14.454;2023-04-30T08:41:10;94083.00;;;19.10
41940;BMP180;23057;48.554;14.454;2023-04-30T08:43:42;94088.00;;;19.00
41940;BMP180;23057;48.554;14.454;2023-04-30T08:46:14;94081.00;;;18.80
41940;BMP180;23057;48.554;14.454;2023-04-30T08:48:47;94081.00;;;18.90
41940;BMP180;23057;48.554;14.454;2023-04-30T08:51:18;94090.00;;;19.00
41940;BMP180;23057;48.554;14.454;2023-04-30T08:53:50;94084.00;;;19.10
41940;BMP180;23057;48.554;14.454;2023-04-30T08:56:24;94088.00;;;19.10
41940;BMP180;23057;48.554;14.454;2023-04-30T08:58:55;94086.00;;;19.20
41940;BMP180;23057;48.554;14.454;2023-04-30T09:01:27;94082.00;;;19.20
41940;BMP180;23057;48.554;14.454;2023-04-30T09:03:59;94091.00;;;19.20
41940;BMP180;23057;48.554;14.454;2023-04-30T09:06:33;94094.00;;;19.30
41940;BMP180;23057;48.554;14.454;2023-04-30T09:09:11;94096.00;;;19.30
41940;BMP180;23057;48.554;14.454;2023-04-30T09:11:43;94092.00;;;19.40
41940;BMP180;23057;48.554;14.454;2023-04-30T09:14:23;94093.00;;;19.40
41940;BMP180;23057;48.554;14.454;2023-04-30T09:16:55;94095.00;;;19.50
41940;BMP180;23057;48.554;14.454;2023-04-30T09:19:29;94084.00;;;19.40
41940;BMP180;23057;48.554;14.454;2023-04-30T09:22:21;94092.00;;;19.40
41940;BMP180;23057;48.554;14.454;2023-04-30T09:24:53;94102.00;;;19.30
41940;BMP180;23057;48.554;14.454;2023-04-30T09:27:24;94102.00;;;19.40
41940;BMP180;23057;48.554;14.454;2023-04-30T09:29:55;94097.00;;;19.40
41940;BMP180;23057;48.554;14.454;2023-04-30T09:32:25;94102.00;;;19.40
41940;BMP180;23057;48.554;14.454;2023-04-30T09:34:56;94094.00;;;19.40
41940;BMP180;23057;48.554;14.454;2023-04-30T09:37:37;94105.00;;;19.60
41940;BMP180;23057;48.554;14.454;2023-04-30T09:40:08;94095.00;;;19.70
41940;BMP180;23057;48.554;14.454;2023-04-30T09:42:39;94098.00;;;19.60
41940;BMP180;23057;48.554;14.454;2023-04-30T09:45:10;94098.00;;;19.50
41940;BMP180;23057;48.554;14.454;2023-04-30T09:47:41;94086.00;;;19.40
41940;BMP180;23057;48.554;14.454;2023-04-30T09:50:12;94094.00;;;19.40
41940;BMP180;23057;48.554;14.454;2023-04-30T09:52:52;94096.00;;;19.30
41940;BMP180;23057;48.554;14.454;2023-04-30T09:55:23;94097.00;;;19.30
41940;BMP180;23057;48.554;14.454;2023-04-30T09:57:54;94100.00;;;19.30
41940;BMP180;23057;48.554;14.454;2023-04-30T10:00:25;94101.00;;;19.30
41940;BMP180;23057;48.554;14.454;2023-04-30T10:02:57;94094.00;;;19.30
41940;BMP180;23057;48.554;14.454;2023-04-30T10:05:33;94096.00;;;19.30
41940;BMP180;23057;48.554;14.454;2023-04-30T10:08:48;94096.00;;;19.40
41940;BMP180;23057;48.554;14.454;2023-04-30T10:11:25;94097.00;;;19.40
41940;BMP180;23057;48.554;14.454;2023-04-30T10:14:09;94096.00;;;19.50
41940;BMP180;23057;48.554;14.454;2023-04-30T10:16:57;94103.00;;;19.60
41940;BMP180;23057;48.554;14.454;2023-04-30T10:19:35;94088.00;;;19.80
41940;BMP180;23057;48.554;14.454;2023-04-30T10:22:12;94084.00;;;19.90
41940;BMP180;23057;48.554;14.454;2023-04-30T10:24:44;94092.00;;;20.00
41940;BMP180;23057;48.554;14.454;2023-04-30T10:27:16;94086.00;;;20.10
41940;BMP180;23057;48.554;14.454;2023-04-30T10:29:48;94087.00;;;20.10
41940;BMP180;23057;48.554;14.454;2023-04-30T10:32:21;94083.00;;;20.20
41940;BMP180;23057;48.554;14.454;2023-04-30T10:35:11;94087.00;;;20.30
41940;BMP180;23057;48.554;14.454;2023-04-30T10:37:53;94083.00;;;20.30
41940;BMP180;23057;48.554;14.454;2023-04-30T10:40:27;94079.00;;;20.20
41940;BMP180;23057;48.554;14.454;2023-04-30T10:42:58;94081.00;;;20.20
41940;BMP180;23057;48.554;14.454;2023-04-30T10:45:36;94076.00;;;20.20
41940;BMP180;23057;48.554;14.454;2023-04-30T10:48:08;94076.00;;;20.30
41940;BMP180;23057;48.554;14.454;2023-04-30T10:50:41;94070.00;;;20.40
41940;BMP180;23057;48.554;14.454;2023-04-30T10:53:17;94062.00;;;20.70
41940;BMP180;23057;48.554;14.454;2023-04-30T10:58:36;94064.00;;;21.10
41940;BMP180;23057;48.554;14.454;2023-04-30T11:01:13;94068.00;;;21.10
41940;BMP180;23057;48.554;14.454;2023-04-30T11:04:09;94067.00;;;21.00
41940;BMP180;23057;48.554;14.454;2023-04-30T11:12:15;94062.00;;;21.10
41940;BMP180;23057;48.554;14.454;2023-04-30T11:14:51;94071.00;;;21.10
41940;BMP180;23057;48.554;14.454;2023-04-30T11:17:23;94066.00;;;21.20
41940;BMP180;23057;48.554;14.454;2023-04-30T11:19:58;94064.00;;;21.30
41940;BMP180;23057;48.554;14.454;2023-04-30T11:22:30;94066.00;;;21.40
41940;BMP180;23057;48.554;14.454;2023-04-30T11:25:11;94064.00;;;21.60
41940;BMP180;23057;48.554;14.454;2023-04-30T11:27:48;94069.00;;;21.70
41940;BMP180;23057;48.554;14.454;2023-04-30T11:30:20;94063.00;;;21.70
41940;BMP180;23057;48.554;14.454;2023-04-30T11:32:51;94069.00;;;21.50
41940;BMP180;23057;48.554;14.454;2023-04-30T11:35:24;94063.00;;;21.40
41940;BMP180;23057;48.554;14.454;2023-04-30T11:37:55;94062.00;;;21.40
41940;BMP180;23057;48.554;14.454;2023-04-30T11:40:27;94064.00;;;21.40
41940;BMP180;23057;48.554;14.454;2023-04-30T11:42:58;94059.00;;;21.30
41940;BMP180;23057;48.554;14.454;2023-04-30T11:45:29;94059.00;;;21.10
41940;BMP180;23057;48.554;14.454;2023-04-30T11:48:00;94058.00;;;20.90
41940;BMP180;23057;48.554;14.454;2023-04-30T11:50:32;94053.00;;;20.90
41940;BMP180;23057;48.554;14.454;2023-04-30T11:53:03;94052.00;;;21.00
41940;BMP180;23057;48.554;14.454;2023-04-30T11:55:34;94050.00;;;20.90
41940;BMP180;23057;48.554;14.454;2023-04-30T11:58:08;94058.00;;;20.70
41940;BMP180;23057;48.554;14.454;2023-04-30T12:00:39;94062.00;;;20.60
41940;BMP180;23057;48.554;14.454;2023-04-30T12:03:13;94063.00;;;20.60
41940;BMP180;23057;48.554;14.454;2023-04-30T12:05:45;94065.00;;;20.60
41940;BMP180;23057;48.554;14.454;2023-04-30T12:08:18;94060.00;;;20.40
41940;BMP180;23057;48.554;14.454;2023-04-30T12:10:49;94070.00;;;20.30
41940;BMP180;23057;48.554;14.454;2023-04-30T12:13:19;94059.00;;;20.30
41940;BMP180;23057;48.554;14.454;2023-04-30T12:15:57;94067.00;;;20.40
41940;BMP180;23057;48.554;14.454;2023-04-30T12:18:31;94064.00;;;20.60
41940;BMP180;23057;48.554;14.454;2023-04-30T12:21:02;94058.00;;;20.80
41940;BMP180;23057;48.554;14.454;2023-04-30T12:23:33;94063.00;;;21.00
41940;BMP180;23057;48.554;14.454;2023-04-30T12:26:05;94053.00;;;21.20
41940;BMP180;23057;48.554;14.454;2023-04-30T12:28:36;94058.00;;;21.30
41940;BMP180;23057;48.554;14.454;2023-04-30T12:31:07;94055.00;;;21.20
41940;BMP180;23057;48.554;14.454;2023-04-30T12:33:38;94053.00;;;21.10
41940;BMP180;23057;48.554;14.454;2023-04-30T12:36:09;94053.00;;;21.00
41940;BMP180;23057;48.554;14.454;2023-04-30T12:38:43;94051.00;;;21.00
41940;BMP180;23057;48.554;14.454;2023-04-30T12:41:14;94052.00;;;20.90
41940;BMP180;23057;48.554;14.454;2023-04-30T12:43:47;94040.00;;;20.80
41940;BMP180;23057;48.554;14.454;2023-04-30T12:46:27;94043.00;;;20.80
41940;BMP180;23057;48.554;14.454;2023-04-30T12:48:58;94046.00;;;20.80
41940;BMP180;23057;48.554;14.454;2023-04-30T12:51:33;94050.00;;;20.80
41940;BMP180;23057;48.554;14.454;2023-04-30T12:54:05;94041.00;;;20.80
41940;BMP180;23057;48.554;14.454;2023-04-30T12:56:36;94049.00;;;20.90
41940;BMP180;23057;48.554;14.454;2023-04-30T12:59:14;94035.00;;;21.10
41940;BMP180;23057;48.554;14.454;2023-04-30T13:01:46;94036.00;;;21.10
41940;BMP180;23057;48.554;14.454;2023-04-30T13:04:17;94028.00;;;21.20
41940;BMP180;23057;48.554;14.454;2023-04-30T13:06:47;94037.00;;;21.10
41940;BMP180;23057;48.554;14.454;2023-04-30T13:09:18;94027.00;;;21.00
41940;BMP180;23057;48.554;14.454;2023-04-30T13:11:49;94018.00;;;21.10
41940;BMP180;23057;48.554;14.454;2023-04-30T13:14:20;94017.00;;;21.10
41940;BMP180;23057;48.554;14.454;2023-04-30T13:16:51;94009.00;;;21.10
41940;BMP180;23057;48.554;14.454;2023-04-30T13:19:23;94001.00;;;21.10
41940;BMP180;23057;48.554;14.454;2023-04-30T13:21:55;94009.00;;;21.10
41940;BMP180;23057;48.554;14.454;2023-04-30T13:24:27;94001.00;;;21.00
41940;BMP180;23057;48.554;14.454;2023-04-30T13:26:57;94017.00;;;20.90
41940;BMP180;23057;48.554;14.454;2023-04-30T13:29:28;94013.00;;;20.80
41940;BMP180;23057;48.554;14.454;2023-04-30T13:31:59;94007.00;;;20.80
41940;BMP180;23057;48.554;14.454;2023-04-30T13:34:30;94006.00;;;20.70
41940;BMP180;23057;48.554;14.454;2023-04-30T13:37:00;94010.00;;;20.60
41940;BMP180;23057;48.554;14.454;2023-04-30T13:39:31;94009.00;;;20.50
41940;BMP180;23057;48.554;14.454;2023-04-30T13:42:02;94004.00;;;20.50
41940;BMP180;23057;48.554;14.454;2023-04-30T13:44:33;94009.00;;;20.40
41940;BMP180;23057;48.554;14.454;2023-04-30T13:47:06;93995.00;;;20.40
41940;BMP180;23057;48.554;14.454;2023-04-30T13:49:40;94003.00;;;20.40
41940;BMP180;23057;48.554;14.454;2023-04-30T13:52:11;94012.00;;;20.40
41940;BMP180;23057;48.554;14.454;2023-04-30T13:54:42;94007.00;;;20.60
41940;BMP180;23057;48.554;14.454;2023-04-30T13:57:13;94006.00;;;20.80
41940;BMP180;23057;48.554;14.454;2023-04-30T13:59:44;94000.00;;;21.00
41940;BMP180;23057;48.554;14.454;2023-04-30T14:02:15;94003.00;;;21.00
41940;BMP180;23057;48.554;14.454;2023-04-30T14:04:46;94013.00;;;20.90
41940;BMP180;23057;48.554;14.454;2023-04-30T14:07:17;94008.00;;;20.70
41940;BMP180;23057;48.554;14.454;2023-04-30T14:09:48;94001.00;;;20.60
41940;BMP180;23057;48.554;14.454;2023-04-30T14:12:19;93996.00;;;20.50
41940;BMP180;23057;48.554;14.454;2023-04-30T14:14:51;93988.00;;;20.40
41940;BMP180;23057;48.554;14.454;2023-04-30T14:17:23;94000.00;;;20.30
41940;BMP180;23057;48.554;14.454;2023-04-30T14:19:56;93995.00;;;20.30
41940;BMP180;23057;48.554;14.454;2023-04-30T14:22:27;93992.00;;;20.30
41940;BMP180;23057;48.554;14.454;2023-04-30T14:24:57;93988.00;;;20.30
41940;BMP180;23057;48.554;14.454;2023-04-30T14:27:29;93987.00;;;20.20
41940;BMP180;23057;48.554;14.454;2023-04-30T14:30:00;93988.00;;;20.30
41940;BMP180;23057;48.554;14.454;2023-04-30T14:32:31;93978.00;;;20.40
41940;BMP180;23057;48.554;14.454;2023-04-30T14:35:01;93979.00;;;20.50
41940;BMP180;23057;48.554;14.454;2023-04-30T14:37:33;93971.00;;;20.50
41940;BMP180;23057;48.554;14.454;2023-04-30T14:40:04;93976.00;;;20.50
41940;BMP180;23057;48.554;14.454;2023-04-30T14:42:37;93976.00;;;20.60
41940;BMP180;23057;48.554;14.454;2023-04-30T14:45:08;93979.00;;;20.60
41940;BMP180;23057;48.554;14.454;2023-04-30T14:47:39;93984.00;;;20.60